sensor_id;sensor_type;location;lat;lon;timestamp;P1;durP1;ratioP1;P2;durP2;ratioP2
69779;SDS011;57052;55.602;38.096;2023-04-03T00:01:11;12.57;;;6.75;;
69779;SDS011;57052;55.602;38.096;2023-04-03T00:03:37;13.50;;;5.85;;
69779;SDS011;57052;55.602;38.096;2023-04-03T00:06:03;10.88;;;5.32;;
69779;SDS011;57052;55.602;38.096;2023-04-03T00:08:31;13.82;;;5.85;;
69779;SDS011;57052;55.602;38.096;2023-04-03T00:10:58;10.77;;;5.45;;
69779;SDS011;57052;55.602;38.096;2023-04-03T00:13:23;12.45;;;6.07;;
69779;SDS011;57052;55.602;38.096;2023-04-03T00:15:50;12.88;;;5.90;;
69779;SDS011;57052;55.602;38.096;2023-04-03T00:18:16;13.75;;;6.20;;
69779;SDS011;57052;55.602;38.096;2023-04-03T00:20:42;12.75;;;5.72;;
69779;SDS011;57052;55.602;38.096;2023-04-03T00:23:07;11.63;;;6.10;;
69779;SDS011;57052;55.602;38.096;2023-04-03T00:25:33;13.82;;;6.43;;
69779;SDS011;57052;55.602;38.096;2023-04-03T00:27:59;11.02;;;6.20;;
69779;SDS011;57052;55.602;38.096;2023-04-03T00:30:25;11.18;;;6.18;;
69779;SDS011;57052;55.602;38.096;2023-04-03T00:32:51;13.48;;;6.43;;
69779;SDS011;57052;55.602;38.096;2023-04-03T00:35:18;11.60;;;5.75;;
69779;SDS011;57052;55.602;38.096;2023-04-03T00:37:45;14.30;;;5.63;;
69779;SDS011;57052;55.602;38.096;2023-04-03T00:40:11;11.68;;;5.78;;
69779;SDS011;57052;55.602;38.096;2023-04-03T00:42:41;9.98;;;5.60;;
69779;SDS011;57052;55.602;38.096;2023-04-03T00:47:43;10.93;;;5.55;;
69779;SDS011;57052;55.602;38.096;2023-04-03T00:50:09;13.18;;;5.82;;
69779;SDS011;57052;55.602;38.096;2023-04-03T00:52:35;11.90;;;5.50;;
69779;SDS011;57052;55.602;38.096;2023-04-03T00:55:05;12.52;;;6.50;;
69779;SDS011;57052;55.602;38.096;2023-04-03T00:57:33;13.18;;;5.32;;
69779;SDS011;57052;55.602;38.096;2023-04-03T01:00:04;10.38;;;5.50;;
69779;SDS011;57052;55.602;38.096;2023-04-03T01:02:36;8.82;;;4.95;;
69779;SDS011;57052;55.602;38.096;2023-04-03T01:05:02;14.00;;;5.32;;
69779;SDS011;57052;55.602;38.096;2023-04-03T01:07:29;9.52;;;5.22;;
69779;SDS011;57052;55.602;38.096;2023-04-03T01:09:57;10.50;;;5.47;;
69779;SDS011;57052;55.602;38.096;2023-04-03T01:12:26;10.82;;;5.07;;
69779;SDS011;57052;55.602;38.096;2023-04-03T01:15:01;12.18;;;5.85;;
69779;SDS011;57052;55.602;38.096;2023-04-03T01:25:33;10.55;;;5.43;;
69779;SDS011;57052;55.602;38.096;2023-04-03T01:28:02;9.68;;;5.18;;
69779;SDS011;57052;55.602;38.096;2023-04-03T01:30:30;9.50;;;5.25;;
69779;SDS011;57052;55.602;38.096;2023-04-03T01:32:59;14.32;;;5.80;;
69779;SDS011;57052;55.602;38.096;2023-04-03T01:35:24;12.20;;;5.60;;
69779;SDS011;57052;55.602;38.096;2023-04-03T01:37:50;9.40;;;5.03;;
69779;SDS011;57052;55.602;38.096;2023-04-03T01:40:16;10.25;;;5.22;;
69779;SDS011;57052;55.602;38.096;2023-04-03T01:42:42;12.63;;;5.13;;
69779;SDS011;57052;55.602;38.096;2023-04-03T01:45:07;9.73;;;5.28;;
69779;SDS011;57052;55.602;38.096;2023-04-03T01:47:34;8.65;;;4.55;;
69779;SDS011;57052;55.602;38.096;2023-04-03T01:49:59;9.32;;;5.00;;
69779;SDS011;57052;55.602;38.096;2023-04-03T01:52:25;12.60;;;5.05;;
69779;SDS011;57052;55.602;38.096;2023-04-03T01:54:51;9.93;;;5.15;;
69779;SDS011;57052;55.602;38.096;2023-04-03T01:57:16;9.98;;;4.90;;
69779;SDS011;57052;55.602;38.096;2023-04-03T01:59:42;11.65;;;5.47;;
69779;SDS011;57052;55.602;38.096;2023-04-03T02:02:07;13.05;;;5.00;;
69779;SDS011;57052;55.602;38.096;2023-04-03T02:04:33;11.43;;;4.78;;
69779;SDS011;57052;55.602;38.096;2023-04-03T02:06:59;9.60;;;5.18;;
69779;SDS011;57052;55.602;38.096;2023-04-03T02:09:25;11.02;;;5.20;;
69779;SDS011;57052;55.602;38.096;2023-04-03T02:11:52;9.93;;;5.00;;
69779;SDS011;57052;55.602;38.096;2023-04-03T02:14:17;12.43;;;5.35;;
69779;SDS011;57052;55.602;38.096;2023-04-03T02:17:03;11.60;;;5.85;;
69779;SDS011;57052;55.602;38.096;2023-04-03T02:19:33;8.82;;;4.75;;
69779;SDS011;57052;55.602;38.096;2023-04-03T02:22:00;12.75;;;5.30;;
69779;SDS011;57052;55.602;38.096;2023-04-03T02:24:25;10.48;;;4.90;;
69779;SDS011;57052;55.602;38.096;2023-04-03T02:26:51;8.88;;;5.05;;
69779;SDS011;57052;55.602;38.096;2023-04-03T02:29:17;11.93;;;5.53;;
69779;SDS011;57052;55.602;38.096;2023-04-03T02:31:42;12.07;;;5.78;;
69779;SDS011;57052;55.602;38.096;2023-04-03T02:34:08;9.68;;;5.15;;
69779;SDS011;57052;55.602;38.096;2023-04-03T02:36:33;9.05;;;4.80;;
69779;SDS011;57052;55.602;38.096;2023-04-03T02:38:59;9.40;;;5.22;;
69779;SDS011;57052;55.602;38.096;2023-04-03T02:41:25;9.73;;;5.20;;
69779;SDS011;57052;55.602;38.096;2023-04-03T02:43:57;12.40;;;5.30;;
69779;SDS011;57052;55.602;38.096;2023-04-03T02:46:22;14.27;;;5.32;;
69779;SDS011;57052;55.602;38.096;2023-04-03T02:48:48;14.98;;;5.30;;
69779;SDS011;57052;55.602;38.096;2023-04-03T02:51:13;9.63;;;5.35;;
69779;SDS011;57052;55.602;38.096;2023-04-03T02:53:39;14.05;;;5.68;;
69779;SDS011;57052;55.602;38.096;2023-04-03T02:56:04;12.90;;;5.30;;
69779;SDS011;57052;55.602;38.096;2023-04-03T02:58:30;13.05;;;5.70;;
69779;SDS011;57052;55.602;38.096;2023-04-03T03:00:56;14.50;;;5.40;;
69779;SDS011;57052;55.602;38.096;2023-04-03T03:03:21;14.82;;;5.45;;
69779;SDS011;57052;55.602;38.096;2023-04-03T03:05:47;15.32;;;6.03;;
69779;SDS011;57052;55.602;38.096;2023-04-03T03:08:13;14.85;;;5.45;;
69779;SDS011;57052;55.602;38.096;2023-04-03T03:10:38;12.98;;;5.93;;
69779;SDS011;57052;55.602;38.096;2023-04-03T03:13:04;14.85;;;5.80;;
69779;SDS011;57052;55.602;38.096;2023-04-03T03:15:30;17.17;;;6.05;;
69779;SDS011;57052;55.602;38.096;2023-04-03T03:17:55;15.48;;;5.75;;
69779;SDS011;57052;55.602;38.096;2023-04-03T03:20:21;22.13;;;6.72;;
69779;SDS011;57052;55.602;38.096;2023-04-03T03:22:46;13.75;;;6.00;;
69779;SDS011;57052;55.602;38.096;2023-04-03T03:25:12;16.88;;;6.35;;
69779;SDS011;57052;55.602;38.096;2023-04-03T03:27:38;20.30;;;6.18;;
69779;SDS011;57052;55.602;38.096;2023-04-03T03:30:05;13.90;;;6.07;;
69779;SDS011;57052;55.602;38.096;2023-04-03T03:32:31;17.65;;;6.35;;
69779;SDS011;57052;55.602;38.096;2023-04-03T03:34:56;20.33;;;6.55;;
69779;SDS011;57052;55.602;38.096;2023-04-03T03:37:22;20.00;;;6.85;;
69779;SDS011;57052;55.602;38.096;2023-04-03T03:39:48;14.00;;;6.32;;
69779;SDS011;57052;55.602;38.096;2023-04-03T03:42:13;19.20;;;7.05;;
69779;SDS011;57052;55.602;38.096;2023-04-03T03:44:39;17.85;;;6.75;;
69779;SDS011;57052;55.602;38.096;2023-04-03T03:47:05;18.67;;;7.05;;
69779;SDS011;57052;55.602;38.096;2023-04-03T03:49:31;20.23;;;6.65;;
69779;SDS011;57052;55.602;38.096;2023-04-03T03:51:56;18.55;;;5.90;;
69779;SDS011;57052;55.602;38.096;2023-04-03T03:54:22;13.40;;;5.82;;
69779;SDS011;57052;55.602;38.096;2023-04-03T03:56:48;18.52;;;6.38;;
69779;SDS011;57052;55.602;38.096;2023-04-03T03:59:13;19.20;;;6.75;;
69779;SDS011;57052;55.602;38.096;2023-04-03T04:01:39;18.05;;;6.97;;
69779;SDS011;57052;55.602;38.096;2023-04-03T04:04:05;12.38;;;7.15;;
69779;SDS011;57052;55.602;38.096;2023-04-03T04:06:30;22.17;;;7.13;;
69779;SDS011;57052;55.602;38.096;2023-04-03T04:08:56;16.73;;;6.63;;
69779;SDS011;57052;55.602;38.096;2023-04-03T04:11:21;20.50;;;6.90;;
69779;SDS011;57052;55.602;38.096;2023-04-03T04:13:47;17.70;;;6.55;;
69779;SDS011;57052;55.602;38.096;2023-04-03T04:16:12;15.23;;;6.65;;
69779;SDS011;57052;55.602;38.096;2023-04-03T04:18:38;27.00;;;6.88;;
69779;SDS011;57052;55.602;38.096;2023-04-03T04:21:04;15.25;;;6.32;;
69779;SDS011;57052;55.602;38.096;2023-04-03T04:23:29;16.85;;;6.43;;
69779;SDS011;57052;55.602;38.096;2023-04-03T04:25:55;25.83;;;7.15;;
69779;SDS011;57052;55.602;38.096;2023-04-03T04:28:20;13.68;;;6.25;;
69779;SDS011;57052;55.602;38.096;2023-04-03T04:30:46;18.40;;;6.78;;
69779;SDS011;57052;55.602;38.096;2023-04-03T04:33:11;15.27;;;6.80;;
69779;SDS011;57052;55.602;38.096;2023-04-03T04:35:38;17.65;;;8.27;;
69779;SDS011;57052;55.602;38.096;2023-04-03T04:38:04;23.58;;;10.13;;
69779;SDS011;57052;55.602;38.096;2023-04-03T04:40:30;21.65;;;10.38;;
69779;SDS011;57052;55.602;38.096;2023-04-03T04:42:56;22.42;;;9.63;;
69779;SDS011;57052;55.602;38.096;2023-04-03T04:45:21;16.45;;;8.90;;
69779;SDS011;57052;55.602;38.096;2023-04-03T04:47:47;16.45;;;7.35;;
69779;SDS011;57052;55.602;38.096;2023-04-03T04:50:12;18.77;;;8.18;;
69779;SDS011;57052;55.602;38.096;2023-04-03T04:52:38;30.42;;;11.15;;
69779;SDS011;57052;55.602;38.096;2023-04-03T04:55:04;21.02;;;9.10;;
69779;SDS011;57052;55.602;38.096;2023-04-03T04:57:30;19.30;;;8.48;;
69779;SDS011;57052;55.602;38.096;2023-04-03T04:59:55;19.88;;;8.45;;
69779;SDS011;57052;55.602;38.096;2023-04-03T05:02:21;23.80;;;7.43;;
69779;SDS011;57052;55.602;38.096;2023-04-03T05:04:47;27.55;;;7.95;;
69779;SDS011;57052;55.602;38.096;2023-04-03T05:07:12;20.02;;;8.10;;
69779;SDS011;57052;55.602;38.096;2023-04-03T05:09:38;18.77;;;7.72;;
69779;SDS011;57052;55.602;38.096;2023-04-03T05:12:06;19.52;;;7.40;;
69779;SDS011;57052;55.602;38.096;2023-04-03T05:14:31;16.10;;;7.50;;
69779;SDS011;57052;55.602;38.096;2023-04-03T05:16:57;22.02;;;7.72;;
69779;SDS011;57052;55.602;38.096;2023-04-03T05:19:23;21.35;;;7.53;;
69779;SDS011;57052;55.602;38.096;2023-04-03T05:21:48;18.35;;;7.05;;
69779;SDS011;57052;55.602;38.096;2023-04-03T05:24:14;20.25;;;7.60;;
69779;SDS011;57052;55.602;38.096;2023-04-03T05:26:41;22.33;;;7.38;;
69779;SDS011;57052;55.602;38.096;2023-04-03T05:29:07;20.95;;;7.07;;
69779;SDS011;57052;55.602;38.096;2023-04-03T05:31:33;21.13;;;7.63;;
69779;SDS011;57052;55.602;38.096;2023-04-03T05:33:58;19.00;;;7.07;;
69779;SDS011;57052;55.602;38.096;2023-04-03T05:36:24;19.25;;;6.97;;
69779;SDS011;57052;55.602;38.096;2023-04-03T05:38:50;21.63;;;7.70;;
69779;SDS011;57052;55.602;38.096;2023-04-03T05:41:17;17.38;;;7.43;;
69779;SDS011;57052;55.602;38.096;2023-04-03T05:43:43;18.30;;;7.45;;
69779;SDS011;57052;55.602;38.096;2023-04-03T05:46:12;19.60;;;7.15;;
69779;SDS011;57052;55.602;38.096;2023-04-03T05:48:39;17.08;;;7.28;;
69779;SDS011;57052;55.602;38.096;2023-04-03T05:51:05;19.35;;;7.25;;
69779;SDS011;57052;55.602;38.096;2023-04-03T05:53:33;20.13;;;7.47;;
69779;SDS011;57052;55.602;38.096;2023-04-03T05:56:02;21.77;;;7.07;;
69779;SDS011;57052;55.602;38.096;2023-04-03T05:58:28;23.63;;;7.25;;
69779;SDS011;57052;55.602;38.096;2023-04-03T06:00:54;19.08;;;7.90;;
69779;SDS011;57052;55.602;38.096;2023-04-03T06:03:20;21.83;;;7.80;;
69779;SDS011;57052;55.602;38.096;2023-04-03T06:05:45;16.35;;;6.80;;
69779;SDS011;57052;55.602;38.096;2023-04-03T06:08:11;14.70;;;6.35;;
69779;SDS011;57052;55.602;38.096;2023-04-03T06:10:38;13.63;;;5.65;;
69779;SDS011;57052;55.602;38.096;2023-04-03T06:13:03;16.55;;;6.70;;
69779;SDS011;57052;55.602;38.096;2023-04-03T06:15:29;15.23;;;6.10;;
69779;SDS011;57052;55.602;38.096;2023-04-03T06:17:55;12.93;;;5.90;;
69779;SDS011;57052;55.602;38.096;2023-04-03T06:20:21;14.52;;;6.32;;
69779;SDS011;57052;55.602;38.096;2023-04-03T06:22:47;15.23;;;6.35;;
69779;SDS011;57052;55.602;38.096;2023-04-03T06:25:13;11.13;;;6.47;;
69779;SDS011;57052;55.602;38.096;2023-04-03T06:27:39;12.38;;;6.13;;
69779;SDS011;57052;55.602;38.096;2023-04-03T06:30:05;12.82;;;6.30;;
69779;SDS011;57052;55.602;38.096;2023-04-03T06:32:32;12.50;;;6.38;;
69779;SDS011;57052;55.602;38.096;2023-04-03T06:34:58;18.70;;;7.05;;
69779;SDS011;57052;55.602;38.096;2023-04-03T06:37:23;18.13;;;6.40;;
69779;SDS011;57052;55.602;38.096;2023-04-03T06:39:54;15.13;;;6.70;;
69779;SDS011;57052;55.602;38.096;2023-04-03T06:42:20;14.52;;;6.30;;
69779;SDS011;57052;55.602;38.096;2023-04-03T06:44:46;15.48;;;6.65;;
69779;SDS011;57052;55.602;38.096;2023-04-03T06:47:13;16.05;;;6.72;;
69779;SDS011;57052;55.602;38.096;2023-04-03T06:49:40;15.27;;;6.60;;
69779;SDS011;57052;55.602;38.096;2023-04-03T06:52:06;13.88;;;6.85;;
69779;SDS011;57052;55.602;38.096;2023-04-03T06:54:33;14.95;;;6.28;;
69779;SDS011;57052;55.602;38.096;2023-04-03T06:56:59;17.75;;;6.82;;
69779;SDS011;57052;55.602;38.096;2023-04-03T06:59:25;18.13;;;6.75;;
69779;SDS011;57052;55.602;38.096;2023-04-03T07:01:51;13.88;;;6.75;;
69779;SDS011;57052;55.602;38.096;2023-04-03T07:04:17;13.85;;;6.72;;
69779;SDS011;57052;55.602;38.096;2023-04-03T07:06:43;14.40;;;7.18;;
69779;SDS011;57052;55.602;38.096;2023-04-03T07:09:09;14.20;;;6.82;;
69779;SDS011;57052;55.602;38.096;2023-04-03T07:11:36;13.88;;;7.45;;
69779;SDS011;57052;55.602;38.096;2023-04-03T07:14:02;15.73;;;6.43;;
69779;SDS011;57052;55.602;38.096;2023-04-03T07:16:27;12.68;;;6.90;;
69779;SDS011;57052;55.602;38.096;2023-04-03T07:18:55;12.43;;;6.65;;
69779;SDS011;57052;55.602;38.096;2023-04-03T07:21:22;14.50;;;6.60;;
69779;SDS011;57052;55.602;38.096;2023-04-03T07:23:48;12.77;;;6.40;;
69779;SDS011;57052;55.602;38.096;2023-04-03T07:26:13;13.52;;;6.70;;
69779;SDS011;57052;55.602;38.096;2023-04-03T07:28:39;12.88;;;6.47;;
69779;SDS011;57052;55.602;38.096;2023-04-03T07:31:07;15.75;;;6.85;;
69779;SDS011;57052;55.602;38.096;2023-04-03T07:33:37;14.52;;;6.50;;
69779;SDS011;57052;55.602;38.096;2023-04-03T07:36:03;15.55;;;6.38;;
69779;SDS011;57052;55.602;38.096;2023-04-03T07:38:31;15.13;;;6.72;;
69779;SDS011;57052;55.602;38.096;2023-04-03T07:40:57;14.25;;;7.20;;
69779;SDS011;57052;55.602;38.096;2023-04-03T07:43:23;19.17;;;7.38;;
69779;SDS011;57052;55.602;38.096;2023-04-03T07:45:50;17.95;;;7.95;;
69779;SDS011;57052;55.602;38.096;2023-04-03T07:48:23;16.48;;;7.35;;
69779;SDS011;57052;55.602;38.096;2023-04-03T07:50:49;14.13;;;7.38;;
69779;SDS011;57052;55.602;38.096;2023-04-03T07:53:15;17.75;;;7.78;;
69779;SDS011;57052;55.602;38.096;2023-04-03T07:55:41;15.30;;;7.38;;
69779;SDS011;57052;55.602;38.096;2023-04-03T07:58:10;17.88;;;7.20;;
69779;SDS011;57052;55.602;38.096;2023-04-03T08:00:37;16.08;;;7.65;;
69779;SDS011;57052;55.602;38.096;2023-04-03T08:03:03;15.38;;;7.38;;
69779;SDS011;57052;55.602;38.096;2023-04-03T08:05:29;18.63;;;8.38;;
69779;SDS011;57052;55.602;38.096;2023-04-03T08:07:54;19.55;;;8.48;;
69779;SDS011;57052;55.602;38.096;2023-04-03T08:10:20;20.90;;;8.48;;
69779;SDS011;57052;55.602;38.096;2023-04-03T08:12:46;23.50;;;9.25;;
69779;SDS011;57052;55.602;38.096;2023-04-03T08:15:13;13.73;;;7.30;;
69779;SDS011;57052;55.602;38.096;2023-04-03T08:17:38;24.52;;;8.00;;
69779;SDS011;57052;55.602;38.096;2023-04-03T08:20:04;25.98;;;8.70;;
69779;SDS011;57052;55.602;38.096;2023-04-03T08:22:32;17.15;;;8.38;;
69779;SDS011;57052;55.602;38.096;2023-04-03T08:24:58;19.55;;;8.55;;
69779;SDS011;57052;55.602;38.096;2023-04-03T08:27:24;22.88;;;8.48;;
69779;SDS011;57052;55.602;38.096;2023-04-03T08:29:50;23.10;;;8.68;;
69779;SDS011;57052;55.602;38.096;2023-04-03T08:32:16;17.70;;;8.05;;
69779;SDS011;57052;55.602;38.096;2023-04-03T08:34:41;18.77;;;8.73;;
69779;SDS011;57052;55.602;38.096;2023-04-03T08:37:07;22.92;;;8.50;;
69779;SDS011;57052;55.602;38.096;2023-04-03T08:39:33;19.65;;;8.65;;
69779;SDS011;57052;55.602;38.096;2023-04-03T08:41:58;20.60;;;9.32;;
69779;SDS011;57052;55.602;38.096;2023-04-03T08:47:40;14.93;;;7.32;;
69779;SDS011;57052;55.602;38.096;2023-04-03T08:50:07;18.02;;;8.43;;
69779;SDS011;57052;55.602;38.096;2023-04-03T08:52:38;21.35;;;8.18;;
69779;SDS011;57052;55.602;38.096;2023-04-03T08:57:48;17.50;;;7.57;;
69779;SDS011;57052;55.602;38.096;2023-04-03T09:00:25;18.23;;;7.70;;
69779;SDS011;57052;55.602;38.096;2023-04-03T09:02:55;21.55;;;7.75;;
69779;SDS011;57052;55.602;38.096;2023-04-03T09:08:04;18.77;;;7.43;;
69779;SDS011;57052;55.602;38.096;2023-04-03T09:10:32;16.20;;;8.07;;
69779;SDS011;57052;55.602;38.096;2023-04-03T09:13:13;14.88;;;7.63;;
69779;SDS011;57052;55.602;38.096;2023-04-03T09:15:41;17.40;;;7.47;;
69779;SDS011;57052;55.602;38.096;2023-04-03T09:23:30;19.23;;;7.80;;
69779;SDS011;57052;55.602;38.096;2023-04-03T09:26:04;21.15;;;7.57;;
69779;SDS011;57052;55.602;38.096;2023-04-03T09:28:36;16.08;;;7.35;;
69779;SDS011;57052;55.602;38.096;2023-04-03T09:31:13;20.83;;;7.50;;
69779;SDS011;57052;55.602;38.096;2023-04-03T09:33:53;17.42;;;6.97;;
69779;SDS011;57052;55.602;38.096;2023-04-03T09:36:40;12.18;;;7.07;;
69779;SDS011;57052;55.602;38.096;2023-04-03T09:39:21;17.03;;;7.37;;
69779;SDS011;57052;55.602;38.096;2023-04-03T09:44:44;18.55;;;6.72;;
69779;SDS011;57052;55.602;38.096;2023-04-03T09:50:28;18.23;;;7.80;;
69779;SDS011;57052;55.602;38.096;2023-04-03T09:52:54;16.55;;;6.88;;
69779;SDS011;57052;55.602;38.096;2023-04-03T09:55:23;18.52;;;7.78;;
69779;SDS011;57052;55.602;38.096;2023-04-03T09:57:55;17.95;;;7.30;;
69779;SDS011;57052;55.602;38.096;2023-04-03T10:00:25;12.52;;;7.00;;
69779;SDS011;57052;55.602;38.096;2023-04-03T10:02:56;13.85;;;7.00;;
69779;SDS011;57052;55.602;38.096;2023-04-03T10:05:30;11.13;;;6.43;;
69779;SDS011;57052;55.602;38.096;2023-04-03T10:10:34;13.10;;;5.05;;
69779;SDS011;57052;55.602;38.096;2023-04-03T10:15:44;12.45;;;5.18;;
69779;SDS011;57052;55.602;38.096;2023-04-03T10:21:35;9.75;;;5.13;;
69779;SDS011;57052;55.602;38.096;2023-04-03T10:30:09;10.45;;;4.75;;
69779;SDS011;57052;55.602;38.096;2023-04-03T10:32:44;11.63;;;4.72;;
69779;SDS011;57052;55.602;38.096;2023-04-03T10:35:38;14.43;;;4.85;;
69779;SDS011;57052;55.602;38.096;2023-04-03T10:38:15;11.93;;;5.03;;
69779;SDS011;57052;55.602;38.096;2023-04-03T10:51:57;12.32;;;5.15;;
69779;SDS011;57052;55.602;38.096;2023-04-03T10:57:22;10.65;;;5.13;;
69779;SDS011;57052;55.602;38.096;2023-04-03T11:00:10;9.50;;;4.68;;
69779;SDS011;57052;55.602;38.096;2023-04-03T11:02:59;10.35;;;4.45;;
69779;SDS011;57052;55.602;38.096;2023-04-03T11:05:44;13.75;;;5.00;;
69779;SDS011;57052;55.602;38.096;2023-04-03T11:11:26;10.25;;;4.78;;
69779;SDS011;57052;55.602;38.096;2023-04-03T11:22:41;13.77;;;5.15;;
69779;SDS011;57052;55.602;38.096;2023-04-03T11:27:40;10.77;;;4.40;;
69779;SDS011;57052;55.602;38.096;2023-04-03T11:30:12;14.90;;;5.22;;
69779;SDS011;57052;55.602;38.096;2023-04-03T11:35:31;9.50;;;5.15;;
69779;SDS011;57052;55.602;38.096;2023-04-03T11:37:59;13.80;;;5.53;;
69779;SDS011;57052;55.602;38.096;2023-04-03T11:40:34;8.95;;;4.70;;
69779;SDS011;57052;55.602;38.096;2023-04-03T11:46:19;10.73;;;5.10;;
69779;SDS011;57052;55.602;38.096;2023-04-03T11:48:41;12.50;;;5.00;;
69779;SDS011;57052;55.602;38.096;2023-04-03T11:53:43;13.43;;;5.10;;
69779;SDS011;57052;55.602;38.096;2023-04-03T12:01:43;20.88;;;5.15;;
69779;SDS011;57052;55.602;38.096;2023-04-03T12:04:11;15.15;;;4.63;;
69779;SDS011;57052;55.602;38.096;2023-04-03T12:07:11;13.32;;;4.97;;
69779;SDS011;57052;55.602;38.096;2023-04-03T12:15:21;17.35;;;4.95;;
69779;SDS011;57052;55.602;38.096;2023-04-03T12:21:16;13.95;;;5.18;;
69779;SDS011;57052;55.602;38.096;2023-04-03T12:23:57;15.57;;;5.40;;
69779;SDS011;57052;55.602;38.096;2023-04-03T12:26:50;15.93;;;5.10;;
69779;SDS011;57052;55.602;38.096;2023-04-03T12:35:02;10.50;;;4.50;;
69779;SDS011;57052;55.602;38.096;2023-04-03T12:37:41;14.98;;;5.72;;
69779;SDS011;57052;55.602;38.096;2023-04-03T12:40:31;18.13;;;4.93;;
69779;SDS011;57052;55.602;38.096;2023-04-03T12:46:18;14.75;;;4.80;;
69779;SDS011;57052;55.602;38.096;2023-04-03T12:48:47;19.58;;;4.45;;
69779;SDS011;57052;55.602;38.096;2023-04-03T12:51:18;14.10;;;5.50;;
69779;SDS011;57052;55.602;38.096;2023-04-03T12:56:49;13.05;;;5.10;;
69779;SDS011;57052;55.602;38.096;2023-04-03T12:59:23;12.15;;;4.78;;
69779;SDS011;57052;55.602;38.096;2023-04-03T13:01:58;10.20;;;4.32;;
69779;SDS011;57052;55.602;38.096;2023-04-03T13:04:25;9.52;;;4.03;;
69779;SDS011;57052;55.602;38.096;2023-04-03T13:06:52;8.68;;;4.30;;
69779;SDS011;57052;55.602;38.096;2023-04-03T13:09:22;12.30;;;5.25;;
69779;SDS011;57052;55.602;38.096;2023-04-03T13:11:57;13.20;;;5.63;;
69779;SDS011;57052;55.602;38.096;2023-04-03T13:14:28;8.00;;;4.55;;
69779;SDS011;57052;55.602;38.096;2023-04-03T13:19:22;12.05;;;5.28;;
69779;SDS011;57052;55.602;38.096;2023-04-03T13:21:54;15.15;;;4.90;;
69779;SDS011;57052;55.602;38.096;2023-04-03T13:24:37;18.10;;;5.57;;
69779;SDS011;57052;55.602;38.096;2023-04-03T13:27:04;11.95;;;4.93;;
69779;SDS011;57052;55.602;38.096;2023-04-03T13:29:33;14.52;;;5.30;;
69779;SDS011;57052;55.602;38.096;2023-04-03T13:32:00;15.10;;;4.70;;
69779;SDS011;57052;55.602;38.096;2023-04-03T13:34:29;11.55;;;4.80;;
69779;SDS011;57052;55.602;38.096;2023-04-03T13:37:02;13.23;;;5.20;;
69779;SDS011;57052;55.602;38.096;2023-04-03T13:39:33;11.27;;;4.95;;
69779;SDS011;57052;55.602;38.096;2023-04-03T13:42:22;9.30;;;5.10;;
69779;SDS011;57052;55.602;38.096;2023-04-03T13:47:52;15.88;;;5.18;;
69779;SDS011;57052;55.602;38.096;2023-04-03T13:52:55;14.00;;;4.82;;
69779;SDS011;57052;55.602;38.096;2023-04-03T13:55:29;10.32;;;4.80;;
69779;SDS011;57052;55.602;38.096;2023-04-03T13:58:00;11.77;;;5.47;;
69779;SDS011;57052;55.602;38.096;2023-04-03T14:00:48;12.40;;;4.88;;
69779;SDS011;57052;55.602;38.096;2023-04-03T14:03:23;14.88;;;5.63;;
69779;SDS011;57052;55.602;38.096;2023-04-03T14:05:49;12.98;;;5.20;;
69779;SDS011;57052;55.602;38.096;2023-04-03T14:08:16;11.60;;;5.85;;
69779;SDS011;57052;55.602;38.096;2023-04-03T14:10:42;16.45;;;5.55;;
69779;SDS011;57052;55.602;38.096;2023-04-03T14:13:11;12.98;;;5.18;;
69779;SDS011;57052;55.602;38.096;2023-04-03T14:15:38;13.10;;;5.57;;
69779;SDS011;57052;55.602;38.096;2023-04-03T14:18:04;21.70;;;5.90;;
69779;SDS011;57052;55.602;38.096;2023-04-03T14:20:29;20.85;;;5.40;;
69779;SDS011;57052;55.602;38.096;2023-04-03T14:22:55;11.35;;;4.95;;
69779;SDS011;57052;55.602;38.096;2023-04-03T14:25:21;11.20;;;5.25;;
69779;SDS011;57052;55.602;38.096;2023-04-03T14:27:49;12.20;;;5.13;;
69779;SDS011;57052;55.602;38.096;2023-04-03T14:30:22;20.48;;;4.55;;
69779;SDS011;57052;55.602;38.096;2023-04-03T14:32:49;15.05;;;4.93;;
69779;SDS011;57052;55.602;38.096;2023-04-03T14:35:15;15.23;;;4.70;;
69779;SDS011;57052;55.602;38.096;2023-04-03T14:37:42;9.20;;;4.47;;
69779;SDS011;57052;55.602;38.096;2023-04-03T14:40:11;21.50;;;5.28;;
69779;SDS011;57052;55.602;38.096;2023-04-03T14:42:41;14.05;;;5.07;;
69779;SDS011;57052;55.602;38.096;2023-04-03T14:45:08;15.38;;;4.80;;
69779;SDS011;57052;55.602;38.096;2023-04-03T14:47:37;15.75;;;4.75;;
69779;SDS011;57052;55.602;38.096;2023-04-03T14:50:17;19.15;;;4.90;;
69779;SDS011;57052;55.602;38.096;2023-04-03T14:52:46;13.38;;;5.18;;
69779;SDS011;57052;55.602;38.096;2023-04-03T14:55:16;17.42;;;5.53;;
69779;SDS011;57052;55.602;38.096;2023-04-03T14:57:44;18.13;;;5.38;;
69779;SDS011;57052;55.602;38.096;2023-04-03T15:00:17;17.80;;;5.57;;
69779;SDS011;57052;55.602;38.096;2023-04-03T15:02:45;15.05;;;5.43;;
69779;SDS011;57052;55.602;38.096;2023-04-03T15:05:12;14.20;;;5.50;;
69779;SDS011;57052;55.602;38.096;2023-04-03T15:07:40;24.33;;;5.80;;
69779;SDS011;57052;55.602;38.096;2023-04-03T15:12:40;13.43;;;5.60;;
69779;SDS011;57052;55.602;38.096;2023-04-03T15:15:06;13.60;;;5.00;;
69779;SDS011;57052;55.602;38.096;2023-04-03T15:17:32;24.00;;;5.47;;
69779;SDS011;57052;55.602;38.096;2023-04-03T15:19:59;14.63;;;5.03;;
69779;SDS011;57052;55.602;38.096;2023-04-03T15:22:26;14.02;;;4.72;;
69779;SDS011;57052;55.602;38.096;2023-04-03T15:24:51;18.70;;;6.00;;
69779;SDS011;57052;55.602;38.096;2023-04-03T15:27:17;14.60;;;5.38;;
69779;SDS011;57052;55.602;38.096;2023-04-03T15:29:43;11.80;;;4.90;;
69779;SDS011;57052;55.602;38.096;2023-04-03T15:32:10;18.85;;;4.85;;
69779;SDS011;57052;55.602;38.096;2023-04-03T15:34:37;23.23;;;5.95;;
69779;SDS011;57052;55.602;38.096;2023-04-03T15:37:03;12.38;;;4.97;;
69779;SDS011;57052;55.602;38.096;2023-04-03T15:39:29;16.70;;;5.60;;
69779;SDS011;57052;55.602;38.096;2023-04-03T15:41:54;22.73;;;5.85;;
69779;SDS011;57052;55.602;38.096;2023-04-03T15:44:20;31.90;;;7.03;;
69779;SDS011;57052;55.602;38.096;2023-04-03T15:46:46;30.83;;;7.70;;
69779;SDS011;57052;55.602;38.096;2023-04-03T15:49:16;27.52;;;7.30;;
69779;SDS011;57052;55.602;38.096;2023-04-03T15:51:43;26.75;;;8.85;;
69779;SDS011;57052;55.602;38.096;2023-04-03T15:54:09;28.23;;;8.20;;
69779;SDS011;57052;55.602;38.096;2023-04-03T15:56:35;29.00;;;9.13;;
69779;SDS011;57052;55.602;38.096;2023-04-03T15:59:00;28.75;;;9.45;;
69779;SDS011;57052;55.602;38.096;2023-04-03T16:01:26;31.00;;;8.77;;
69779;SDS011;57052;55.602;38.096;2023-04-03T16:03:52;25.08;;;8.73;;
69779;SDS011;57052;55.602;38.096;2023-04-03T16:06:17;26.08;;;7.97;;
69779;SDS011;57052;55.602;38.096;2023-04-03T16:08:44;24.30;;;7.68;;
69779;SDS011;57052;55.602;38.096;2023-04-03T16:11:10;26.13;;;6.82;;
69779;SDS011;57052;55.602;38.096;2023-04-03T16:13:35;18.17;;;5.88;;
69779;SDS011;57052;55.602;38.096;2023-04-03T16:16:01;14.52;;;5.50;;
69779;SDS011;57052;55.602;38.096;2023-04-03T16:18:28;18.90;;;5.00;;
69779;SDS011;57052;55.602;38.096;2023-04-03T16:20:54;14.65;;;5.30;;
69779;SDS011;57052;55.602;38.096;2023-04-03T16:23:20;13.43;;;5.13;;
69779;SDS011;57052;55.602;38.096;2023-04-03T16:25:46;13.10;;;4.80;;
69779;SDS011;57052;55.602;38.096;2023-04-03T16:28:15;14.35;;;5.25;;